sensor_id;sensor_type;location;lat;lon;timestamp;temperature;humidity
13928;DHT22;7036;50.834;4.718;2023-09-19T00:01:23;24.50;62.10
13928;DHT22;7036;50.834;4.718;2023-09-19T00:03:50;24.50;62.10
13928;DHT22;7036;50.834;4.718;2023-09-19T00:06:17;24.50;62.30
13928;DHT22;7036;50.834;4.718;2023-09-19T00:08:44;24.50;62.20
13928;DHT22;7036;50.834;4.718;2023-09-19T00:11:11;24.50;62.10
13928;DHT22;7036;50.834;4.718;2023-09-19T00:13:38;24.50;62.20
13928;DHT22;7036;50.834;4.718;2023-09-19T00:16:11;24.50;62.10
13928;DHT22;7036;50.834;4.718;2023-09-19T00:18:35;24.50;62.00
13928;DHT22;7036;50.834;4.718;2023-09-19T00:21:02;24.50;62.10
13928;DHT22;7036;50.834;4.718;2023-09-19T00:23:29;24.50;62.00
13928;DHT22;7036;50.834;4.718;2023-09-19T00:25:58;24.50;62.00
13928;DHT22;7036;50.834;4.718;2023-09-19T00:28:22;24.50;62.00
13928;DHT22;7036;50.834;4.718;2023-09-19T00:30:49;24.50;62.10
13928;DHT22;7036;50.834;4.718;2023-09-19T00:33:19;24.50;62.10
13928;DHT22;7036;50.834;4.718;2023-09-19T00:35:52;24.50;62.00
13928;DHT22;7036;50.834;4.718;2023-09-19T00:38:19;24.50;62.00
13928;DHT22;7036;50.834;4.718;2023-09-19T00:40:46;24.50;61.90
13928;DHT22;7036;50.834;4.718;2023-09-19T00:43:12;24.50;62.00
13928;DHT22;7036;50.834;4.718;2023-09-19T00:45:42;24.50;62.00
13928;DHT22;7036;50.834;4.718;2023-09-19T00:48:07;24.50;62.10
13928;DHT22;7036;50.834;4.718;2023-09-19T00:50:33;24.50;62.00
13928;DHT22;7036;50.834;4.718;2023-09-19T00:53:00;24.40;62.00
13928;DHT22;7036;50.834;4.718;2023-09-19T00:55:27;24.40;62.00
13928;DHT22;7036;50.834;4.718;2023-09-19T00:57:55;24.40;62.00
13928;DHT22;7036;50.834;4.718;2023-09-19T01:00:21;24.40;62.00
13928;DHT22;7036;50.834;4.718;2023-09-19T01:02:48;24.40;62.00
13928;DHT22;7036;50.834;4.718;2023-09-19T01:05:16;24.40;62.90
13928;DHT22;7036;50.834;4.718;2023-09-19T01:07:42;24.40;62.00
13928;DHT22;7036;50.834;4.718;2023-09-19T01:10:10;24.40;62.00
13928;DHT22;7036;50.834;4.718;2023-09-19T01:21:05;24.40;62.00
13928;DHT22;7036;50.834;4.718;2023-09-19T01:26:05;24.40;62.00
13928;DHT22;7036;50.834;4.718;2023-09-19T01:28:45;24.40;61.90
13928;DHT22;7036;50.834;4.718;2023-09-19T01:31:10;24.40;61.90
13928;DHT22;7036;50.834;4.718;2023-09-19T01:34:01;24.40;61.90
13928;DHT22;7036;50.834;4.718;2023-09-19T01:36:32;24.40;62.00
13928;DHT22;7036;50.834;4.718;2023-09-19T01:38:58;24.40;61.80
13928;DHT22;7036;50.834;4.718;2023-09-19T01:42:13;24.40;61.90
13928;DHT22;7036;50.834;4.718;2023-09-19T01:43:52;24.30;61.90
13928;DHT22;7036;50.834;4.718;2023-09-19T01:46:24;24.30;61.90
13928;DHT22;7036;50.834;4.718;2023-09-19T01:51:32;24.30;61.90
13928;DHT22;7036;50.834;4.718;2023-09-19T01:54:09;24.30;62.00
13928;DHT22;7036;50.834;4.718;2023-09-19T01:59:16;24.30;61.80
13928;DHT22;7036;50.834;4.718;2023-09-19T02:01:42;24.30;61.80
13928;DHT22;7036;50.834;4.718;2023-09-19T02:04:08;24.30;61.70
13928;DHT22;7036;50.834;4.718;2023-09-19T02:06:39;24.30;61.80
13928;DHT22;7036;50.834;4.718;2023-09-19T02:09:02;24.30;61.80
13928;DHT22;7036;50.834;4.718;2023-09-19T02:11:29;24.30;61.90
13928;DHT22;7036;50.834;4.718;2023-09-19T02:13:56;24.30;61.80
13928;DHT22;7036;50.834;4.718;2023-09-19T02:16:23;24.30;61.80
13928;DHT22;7036;50.834;4.718;2023-09-19T02:18:50;24.30;61.80
13928;DHT22;7036;50.834;4.718;2023-09-19T02:21:17;24.20;61.90
13928;DHT22;7036;50.834;4.718;2023-09-19T02:23:44;24.20;61.90
13928;DHT22;7036;50.834;4.718;2023-09-19T02:26:11;24.20;61.90
13928;DHT22;7036;50.834;4.718;2023-09-19T02:28:38;24.20;61.90
13928;DHT22;7036;50.834;4.718;2023-09-19T02:31:05;24.30;61.90
13928;DHT22;7036;50.834;4.718;2023-09-19T02:33:33;24.20;61.90
13928;DHT22;7036;50.834;4.718;2023-09-19T02:35:59;24.20;61.80
13928;DHT22;7036;50.834;4.718;2023-09-19T02:38:26;24.20;61.80
13928;DHT22;7036;50.834;4.718;2023-09-19T02:40:53;24.20;61.90
13928;DHT22;7036;50.834;4.718;2023-09-19T02:43:21;24.20;61.90
13928;DHT22;7036;50.834;4.718;2023-09-19T02:45:47;24.20;61.80
13928;DHT22;7036;50.834;4.718;2023-09-19T02:48:14;24.20;61.80
13928;DHT22;7036;50.834;4.718;2023-09-19T02:50:41;24.20;61.70
13928;DHT22;7036;50.834;4.718;2023-09-19T02:53:08;24.20;61.70
13928;DHT22;7036;50.834;4.718;2023-09-19T02:55:35;24.20;61.70
13928;DHT22;7036;50.834;4.718;2023-09-19T02:58:03;24.20;61.70
13928;DHT22;7036;50.834;4.718;2023-09-19T03:00:30;24.20;61.70
13928;DHT22;7036;50.834;4.718;2023-09-19T03:02:57;24.20;61.70
13928;DHT22;7036;50.834;4.718;2023-09-19T03:05:24;24.20;61.70
13928;DHT22;7036;50.834;4.718;2023-09-19T03:07:51;24.20;62.10
13928;DHT22;7036;50.834;4.718;2023-09-19T03:10:21;24.20;61.70
13928;DHT22;7036;50.834;4.718;2023-09-19T03:12:45;24.20;61.80
13928;DHT22;7036;50.834;4.718;2023-09-19T03:15:11;24.20;61.70
13928;DHT22;7036;50.834;4.718;2023-09-19T03:17:38;24.20;62.40
13928;DHT22;7036;50.834;4.718;2023-09-19T03:20:06;24.20;61.60
13928;DHT22;7036;50.834;4.718;2023-09-19T03:22:33;24.20;61.70
13928;DHT22;7036;50.834;4.718;2023-09-19T03:25:00;24.20;61.60
13928;DHT22;7036;50.834;4.718;2023-09-19T03:27:27;24.20;61.50
13928;DHT22;7036;50.834;4.718;2023-09-19T03:29:53;24.20;61.60
13928;DHT22;7036;50.834;4.718;2023-09-19T03:32:20;24.10;61.50
13928;DHT22;7036;50.834;4.718;2023-09-19T03:34:47;24.10;62.10
13928;DHT22;7036;50.834;4.718;2023-09-19T03:37:14;24.10;61.50
13928;DHT22;7036;50.834;4.718;2023-09-19T03:39:43;24.10;61.50
13928;DHT22;7036;50.834;4.718;2023-09-19T03:42:10;24.10;61.50
13928;DHT22;7036;50.834;4.718;2023-09-19T03:44:37;24.10;61.50
13928;DHT22;7036;50.834;4.718;2023-09-19T03:47:04;24.10;61.40
13928;DHT22;7036;50.834;4.718;2023-09-19T03:49:31;24.10;61.50
13928;DHT22;7036;50.834;4.718;2023-09-19T03:51:58;24.10;61.40
13928;DHT22;7036;50.834;4.718;2023-09-19T03:54:25;24.10;61.40
13928;DHT22;7036;50.834;4.718;2023-09-19T03:56:51;24.10;61.50
13928;DHT22;7036;50.834;4.718;2023-09-19T03:59:18;24.10;61.40
13928;DHT22;7036;50.834;4.718;2023-09-19T04:01:45;24.10;61.40
13928;DHT22;7036;50.834;4.718;2023-09-19T04:04:12;24.10;61.50
13928;DHT22;7036;50.834;4.718;2023-09-19T04:06:39;24.10;61.50
13928;DHT22;7036;50.834;4.718;2023-09-19T04:09:06;24.10;61.40
13928;DHT22;7036;50.834;4.718;2023-09-19T04:11:33;24.10;61.40
13928;DHT22;7036;50.834;4.718;2023-09-19T04:14:02;24.10;61.40
13928;DHT22;7036;50.834;4.718;2023-09-19T04:16:27;24.10;61.40
13928;DHT22;7036;50.834;4.718;2023-09-19T04:18:54;24.10;61.40
13928;DHT22;7036;50.834;4.718;2023-09-19T04:21:21;24.10;61.40
13928;DHT22;7036;50.834;4.718;2023-09-19T04:23:48;24.10;61.40
13928;DHT22;7036;50.834;4.718;2023-09-19T04:26:15;24.00;61.40
13928;DHT22;7036;50.834;4.718;2023-09-19T04:28:42;24.10;61.50
13928;DHT22;7036;50.834;4.718;2023-09-19T04:31:09;24.10;61.40
13928;DHT22;7036;50.834;4.718;2023-09-19T04:33:36;24.10;61.30
13928;DHT22;7036;50.834;4.718;2023-09-19T04:36:03;24.10;61.40
13928;DHT22;7036;50.834;4.718;2023-09-19T04:38:32;24.10;61.40
13928;DHT22;7036;50.834;4.718;2023-09-19T04:40:59;24.10;61.30
13928;DHT22;7036;50.834;4.718;2023-09-19T04:43:26;24.10;61.40
13928;DHT22;7036;50.834;4.718;2023-09-19T04:45:53;24.00;61.40
13928;DHT22;7036;50.834;4.718;2023-09-19T04:48:20;24.00;61.30
13928;DHT22;7036;50.834;4.718;2023-09-19T04:50:48;24.00;61.30
13928;DHT22;7036;50.834;4.718;2023-09-19T04:53:14;24.00;61.30
13928;DHT22;7036;50.834;4.718;2023-09-19T04:55:41;24.00;61.30
13928;DHT22;7036;50.834;4.718;2023-09-19T04:58:07;24.00;61.30
13928;DHT22;7036;50.834;4.718;2023-09-19T05:00:34;24.00;61.30
13928;DHT22;7036;50.834;4.718;2023-09-19T05:03:01;24.00;61.30
13928;DHT22;7036;50.834;4.718;2023-09-19T05:05:29;24.00;61.30
13928;DHT22;7036;50.834;4.718;2023-09-19T05:07:55;24.00;61.40
13928;DHT22;7036;50.834;4.718;2023-09-19T05:10:22;24.00;61.40
13928;DHT22;7036;50.834;4.718;2023-09-19T05:12:52;24.00;61.40
13928;DHT22;7036;50.834;4.718;2023-09-19T05:15:16;24.00;61.30
13928;DHT22;7036;50.834;4.718;2023-09-19T05:17:50;24.00;61.30
13928;DHT22;7036;50.834;4.718;2023-09-19T05:20:19;24.00;61.30
13928;DHT22;7036;50.834;4.718;2023-09-19T05:22:46;24.00;61.30
13928;DHT22;7036;50.834;4.718;2023-09-19T05:25:13;24.00;61.30
13928;DHT22;7036;50.834;4.718;2023-09-19T05:27:43;24.00;61.30
13928;DHT22;7036;50.834;4.718;2023-09-19T05:30:10;24.00;61.30
13928;DHT22;7036;50.834;4.718;2023-09-19T05:32:38;24.00;61.30
13928;DHT22;7036;50.834;4.718;2023-09-19T05:35:04;24.00;61.20
13928;DHT22;7036;50.834;4.718;2023-09-19T05:37:31;24.00;61.20
13928;DHT22;7036;50.834;4.718;2023-09-19T05:39:58;24.00;61.20
13928;DHT22;7036;50.834;4.718;2023-09-19T05:42:25;24.00;61.30
13928;DHT22;7036;50.834;4.718;2023-09-19T05:44:52;24.00;61.30
13928;DHT22;7036;50.834;4.718;2023-09-19T05:47:19;24.00;61.30
13928;DHT22;7036;50.834;4.718;2023-09-19T05:49:46;24.00;61.30
13928;DHT22;7036;50.834;4.718;2023-09-19T05:52:13;23.90;61.30
13928;DHT22;7036;50.834;4.718;2023-09-19T05:54:40;23.90;61.30
13928;DHT22;7036;50.834;4.718;2023-09-19T05:57:07;23.90;61.20
13928;DHT22;7036;50.834;4.718;2023-09-19T05:59:34;23.90;61.20
13928;DHT22;7036;50.834;4.718;2023-09-19T06:02:01;23.90;60.90
13928;DHT22;7036;50.834;4.718;2023-09-19T06:04:28;24.00;60.70
13928;DHT22;7036;50.834;4.718;2023-09-19T06:06:55;24.00;60.70
13928;DHT22;7036;50.834;4.718;2023-09-19T06:09:21;24.00;60.70
13928;DHT22;7036;50.834;4.718;2023-09-19T06:11:48;24.00;60.70
13928;DHT22;7036;50.834;4.718;2023-09-19T06:14:15;24.00;60.90
13928;DHT22;7036;50.834;4.718;2023-09-19T06:16:42;24.00;60.90
13928;DHT22;7036;50.834;4.718;2023-09-19T06:19:09;24.00;60.90
13928;DHT22;7036;50.834;4.718;2023-09-19T06:21:36;24.00;60.80
13928;DHT22;7036;50.834;4.718;2023-09-19T06:24:03;23.90;60.80
13928;DHT22;7036;50.834;4.718;2023-09-19T06:26:30;23.90;60.60
13928;DHT22;7036;50.834;4.718;2023-09-19T06:28:57;24.00;60.60
13928;DHT22;7036;50.834;4.718;2023-09-19T06:31:24;23.90;60.30
13928;DHT22;7036;50.834;4.718;2023-09-19T06:33:50;24.00;60.20
13928;DHT22;7036;50.834;4.718;2023-09-19T06:36:17;24.00;60.10
13928;DHT22;7036;50.834;4.718;2023-09-19T06:38:44;23.90;60.10
13928;DHT22;7036;50.834;4.718;2023-09-19T06:41:11;23.90;60.20
13928;DHT22;7036;50.834;4.718;2023-09-19T06:43:38;23.90;60.20
13928;DHT22;7036;50.834;4.718;2023-09-19T06:46:05;23.90;60.30
13928;DHT22;7036;50.834;4.718;2023-09-19T06:48:32;23.90;60.40
13928;DHT22;7036;50.834;4.718;2023-09-19T06:51:00;23.90;60.30
13928;DHT22;7036;50.834;4.718;2023-09-19T06:53:29;23.90;60.40
13928;DHT22;7036;50.834;4.718;2023-09-19T06:55:56;23.90;59.80
13928;DHT22;7036;50.834;4.718;2023-09-19T06:58:23;23.80;59.40
13928;DHT22;7036;50.834;4.718;2023-09-19T07:00:50;23.80;59.60
13928;DHT22;7036;50.834;4.718;2023-09-19T07:03:17;23.80;59.40
13928;DHT22;7036;50.834;4.718;2023-09-19T07:05:46;23.90;59.60
13928;DHT22;7036;50.834;4.718;2023-09-19T07:08:11;23.80;59.40
13928;DHT22;7036;50.834;4.718;2023-09-19T07:10:39;23.90;59.50
13928;DHT22;7036;50.834;4.718;2023-09-19T07:13:06;23.90;59.60
13928;DHT22;7036;50.834;4.718;2023-09-19T07:15:32;23.90;59.50
13928;DHT22;7036;50.834;4.718;2023-09-19T07:17:59;23.90;59.40
13928;DHT22;7036;50.834;4.718;2023-09-19T07:20:26;23.90;59.40
13928;DHT22;7036;50.834;4.718;2023-09-19T07:22:53;23.90;59.30
13928;DHT22;7036;50.834;4.718;2023-09-19T07:25:22;23.90;59.30
13928;DHT22;7036;50.834;4.718;2023-09-19T07:27:49;23.90;59.00
13928;DHT22;7036;50.834;4.718;2023-09-19T07:30:16;23.90;59.10
13928;DHT22;7036;50.834;4.718;2023-09-19T07:32:43;23.90;59.30
13928;DHT22;7036;50.834;4.718;2023-09-19T07:35:10;23.90;59.70
13928;DHT22;7036;50.834;4.718;2023-09-19T07:37:38;23.90;59.10
13928;DHT22;7036;50.834;4.718;2023-09-19T07:40:05;23.90;59.00
13928;DHT22;7036;50.834;4.718;2023-09-19T07:42:36;23.90;59.20
13928;DHT22;7036;50.834;4.718;2023-09-19T07:45:03;23.90;59.10
13928;DHT22;7036;50.834;4.718;2023-09-19T07:47:30;23.90;59.10
13928;DHT22;7036;50.834;4.718;2023-09-19T07:49:57;23.90;59.10
13928;DHT22;7036;50.834;4.718;2023-09-19T07:52:24;23.90;59.10
13928;DHT22;7036;50.834;4.718;2023-09-19T07:54:50;24.00;59.10
13928;DHT22;7036;50.834;4.718;2023-09-19T07:57:17;23.90;59.00
13928;DHT22;7036;50.834;4.718;2023-09-19T07:59:46;24.00;59.10
13928;DHT22;7036;50.834;4.718;2023-09-19T08:02:12;24.00;59.00
13928;DHT22;7036;50.834;4.718;2023-09-19T08:04:45;24.00;59.10
13928;DHT22;7036;50.834;4.718;2023-09-19T08:07:14;24.00;59.10
13928;DHT22;7036;50.834;4.718;2023-09-19T08:09:41;24.00;59.00
13928;DHT22;7036;50.834;4.718;2023-09-19T08:12:11;24.00;59.00
13928;DHT22;7036;50.834;4.718;2023-09-19T08:14:45;24.00;59.00
13928;DHT22;7036;50.834;4.718;2023-09-19T08:17:12;24.00;59.10
13928;DHT22;7036;50.834;4.718;2023-09-19T08:19:39;24.00;59.00
13928;DHT22;7036;50.834;4.718;2023-09-19T08:22:06;24.10;59.10
13928;DHT22;7036;50.834;4.718;2023-09-19T08:24:33;24.00;59.10
13928;DHT22;7036;50.834;4.718;2023-09-19T08:26:59;24.00;59.00
13928;DHT22;7036;50.834;4.718;2023-09-19T08:29:26;24.00;59.00
13928;DHT22;7036;50.834;4.718;2023-09-19T08:31:57;24.10;59.10
13928;DHT22;7036;50.834;4.718;2023-09-19T08:34:23;24.10;59.00
13928;DHT22;7036;50.834;4.718;2023-09-19T08:36:51;24.10;58.90
13928;DHT22;7036;50.834;4.718;2023-09-19T08:39:17;24.10;58.90
13928;DHT22;7036;50.834;4.718;2023-09-19T08:41:44;24.10;59.00
13928;DHT22;7036;50.834;4.718;2023-09-19T08:44:11;24.10;58.90
13928;DHT22;7036;50.834;4.718;2023-09-19T08:46:39;24.10;59.00
13928;DHT22;7036;50.834;4.718;2023-09-19T08:49:06;24.10;58.90
13928;DHT22;7036;50.834;4.718;2023-09-19T08:51:45;24.10;59.00
13928;DHT22;7036;50.834;4.718;2023-09-19T08:54:12;24.10;59.00
13928;DHT22;7036;50.834;4.718;2023-09-19T08:56:37;24.10;59.00
13928;DHT22;7036;50.834;4.718;2023-09-19T08:59:05;24.10;59.10
13928;DHT22;7036;50.834;4.718;2023-09-19T09:01:31;24.10;59.10
13928;DHT22;7036;50.834;4.718;2023-09-19T09:03:58;24.10;58.90
13928;DHT22;7036;50.834;4.718;2023-09-19T09:06:25;24.10;58.90
13928;DHT22;7036;50.834;4.718;2023-09-19T09:08:52;24.20;58.90
13928;DHT22;7036;50.834;4.718;2023-09-19T09:11:20;24.20;58.80
13928;DHT22;7036;50.834;4.718;2023-09-19T09:13:47;24.20;58.80
13928;DHT22;7036;50.834;4.718;2023-09-19T09:16:14;24.20;58.70
13928;DHT22;7036;50.834;4.718;2023-09-19T09:18:40;24.20;58.60
13928;DHT22;7036;50.834;4.718;2023-09-19T09:21:07;24.20;59.20
13928;DHT22;7036;50.834;4.718;2023-09-19T09:23:34;24.20;58.60
13928;DHT22;7036;50.834;4.718;2023-09-19T09:26:01;24.20;58.60
13928;DHT22;7036;50.834;4.718;2023-09-19T09:28:30;24.20;58.60
13928;DHT22;7036;50.834;4.718;2023-09-19T09:30:57;24.20;58.50
13928;DHT22;7036;50.834;4.718;2023-09-19T09:33:30;24.20;58.50
13928;DHT22;7036;50.834;4.718;2023-09-19T09:36:00;24.20;58.60
13928;DHT22;7036;50.834;4.718;2023-09-19T09:38:27;24.20;58.60
13928;DHT22;7036;50.834;4.718;2023-09-19T09:40:55;24.20;58.50
13928;DHT22;7036;50.834;4.718;2023-09-19T09:49:04;24.20;58.60
13928;DHT22;7036;50.834;4.718;2023-09-19T09:51:44;24.20;58.40
13928;DHT22;7036;50.834;4.718;2023-09-19T09:54:13;24.20;58.30
13928;DHT22;7036;50.834;4.718;2023-09-19T09:56:55;24.30;58.30
13928;DHT22;7036;50.834;4.718;2023-09-19T09:59:21;24.20;58.40
13928;DHT22;7036;50.834;4.718;2023-09-19T10:01:48;24.20;58.10
13928;DHT22;7036;50.834;4.718;2023-09-19T10:04:36;24.20;58.30
13928;DHT22;7036;50.834;4.718;2023-09-19T10:06:41;24.20;58.20
13928;DHT22;7036;50.834;4.718;2023-09-19T10:09:15;24.30;57.80
13928;DHT22;7036;50.834;4.718;2023-09-19T10:11:45;24.20;57.70
13928;DHT22;7036;50.834;4.718;2023-09-19T10:14:12;24.30;57.70
13928;DHT22;7036;50.834;4.718;2023-09-19T10:16:47;24.30;57.60
13928;DHT22;7036;50.834;4.718;2023-09-19T10:19:42;24.30;57.60
13928;DHT22;7036;50.834;4.718;2023-09-19T10:22:07;24.40;57.70
13928;DHT22;7036;50.834;4.718;2023-09-19T10:24:34;24.40;57.50
13928;DHT22;7036;50.834;4.718;2023-09-19T10:27:01;24.40;57.60
13928;DHT22;7036;50.834;4.718;2023-09-19T10:29:27;24.40;57.70
13928;DHT22;7036;50.834;4.718;2023-09-19T10:31:54;24.40;57.70
13928;DHT22;7036;50.834;4.718;2023-09-19T10:34:21;24.40;57.80
13928;DHT22;7036;50.834;4.718;2023-09-19T10:36:48;24.40;57.80
13928;DHT22;7036;50.834;4.718;2023-09-19T10:39:16;24.40;57.70
13928;DHT22;7036;50.834;4.718;2023-09-19T10:41:51;24.40;57.70
13928;DHT22;7036;50.834;4.718;2023-09-19T10:44:23;24.40;57.70
13928;DHT22;7036;50.834;4.718;2023-09-19T10:46:50;24.40;57.60
13928;DHT22;7036;50.834;4.718;2023-09-19T10:49:17;24.40;57.70
13928;DHT22;7036;50.834;4.718;2023-09-19T10:51:44;24.40;57.60
13928;DHT22;7036;50.834;4.718;2023-09-19T10:54:13;24.40;57.50
13928;DHT22;7036;50.834;4.718;2023-09-19T10:56:37;24.40;57.50
13928;DHT22;7036;50.834;4.718;2023-09-19T10:59:07;24.40;57.80
13928;DHT22;7036;50.834;4.718;2023-09-19T11:01:44;24.40;58.30
13928;DHT22;7036;50.834;4.718;2023-09-19T11:04:26;24.40;57.70
13928;DHT22;7036;50.834;4.718;2023-09-19T11:07:06;24.40;57.70
13928;DHT22;7036;50.834;4.718;2023-09-19T11:12:10;24.40;57.60
13928;DHT22;7036;50.834;4.718;2023-09-19T11:14:38;24.40;57.40
13928;DHT22;7036;50.834;4.718;2023-09-19T11:30:39;24.50;57.20
13928;DHT22;7036;50.834;4.718;2023-09-19T11:33:18;24.50;57.20
13928;DHT22;7036;50.834;4.718;2023-09-19T11:36:16;24.50;57.10
13928;DHT22;7036;50.834;4.718;2023-09-19T11:46:34;24.50;57.10
13928;DHT22;7036;50.834;4.718;2023-09-19T11:49:07;24.50;57.00
13928;DHT22;7036;50.834;4.718;2023-09-19T11:51:42;24.50;57.10
13928;DHT22;7036;50.834;4.718;2023-09-19T11:54:13;24.50;57.20
13928;DHT22;7036;50.834;4.718;2023-09-19T11:56:41;24.50;57.00
13928;DHT22;7036;50.834;4.718;2023-09-19T11:59:08;24.50;57.00
13928;DHT22;7036;50.834;4.718;2023-09-19T12:01:35;24.50;57.00
13928;DHT22;7036;50.834;4.718;2023-09-19T12:04:02;24.50;57.00
13928;DHT22;7036;50.834;4.718;2023-09-19T12:06:30;24.50;57.20
13928;DHT22;7036;50.834;4.718;2023-09-19T12:08:56;24.50;57.10
13928;DHT22;7036;50.834;4.718;2023-09-19T12:11:23;24.50;57.00
13928;DHT22;7036;50.834;4.718;2023-09-19T12:13:50;24.50;57.10
13928;DHT22;7036;50.834;4.718;2023-09-19T12:16:20;24.50;57.00
13928;DHT22;7036;50.834;4.718;2023-09-19T12:18:50;24.50;57.00
13928;DHT22;7036;50.834;4.718;2023-09-19T12:21:26;24.50;57.10
13928;DHT22;7036;50.834;4.718;2023-09-19T12:26:40;24.50;57.20
13928;DHT22;7036;50.834;4.718;2023-09-19T12:29:12;24.50;57.20
13928;DHT22;7036;50.834;4.718;2023-09-19T12:31:36;24.50;57.20
13928;DHT22;7036;50.834;4.718;2023-09-19T12:34:03;24.50;57.20
13928;DHT22;7036;50.834;4.718;2023-09-19T12:36:30;24.50;56.90
13928;DHT22;7036;50.834;4.718;2023-09-19T12:38:57;24.50;56.70
13928;DHT22;7036;50.834;4.718;2023-09-19T12:41:26;24.50;56.60
13928;DHT22;7036;50.834;4.718;2023-09-19T12:43:53;24.40;57.00
13928;DHT22;7036;50.834;4.718;2023-09-19T12:46:21;24.40;56.30
13928;DHT22;7036;50.834;4.718;2023-09-19T12:48:47;24.40;56.30
13928;DHT22;7036;50.834;4.718;2023-09-19T12:51:14;24.40;56.30
13928;DHT22;7036;50.834;4.718;2023-09-19T12:53:45;24.40;56.40
13928;DHT22;7036;50.834;4.718;2023-09-19T12:56:15;24.40;56.60
13928;DHT22;7036;50.834;4.718;2023-09-19T12:58:57;24.50;57.10
13928;DHT22;7036;50.834;4.718;2023-09-19T13:01:24;24.50;57.20
13928;DHT22;7036;50.834;4.718;2023-09-19T13:04:12;24.50;57.20
13928;DHT22;7036;50.834;4.718;2023-09-19T13:06:42;24.50;57.90
13928;DHT22;7036;50.834;4.718;2023-09-19T13:09:11;24.50;57.10
13928;DHT22;7036;50.834;4.718;2023-09-19T13:11:38;24.50;56.90
13928;DHT22;7036;50.834;4.718;2023-09-19T13:14:23;24.50;57.00
13928;DHT22;7036;50.834;4.718;2023-09-19T13:19:41;24.50;56.80
13928;DHT22;7036;50.834;4.718;2023-09-19T13:22:42;24.50;56.80
13928;DHT22;7036;50.834;4.718;2023-09-19T13:25:09;24.50;56.80
13928;DHT22;7036;50.834;4.718;2023-09-19T13:27:36;24.50;56.80
13928;DHT22;7036;50.834;4.718;2023-09-19T13:30:03;24.50;56.90
13928;DHT22;7036;50.834;4.718;2023-09-19T13:32:34;24.50;57.10
13928;DHT22;7036;50.834;4.718;2023-09-19T13:35:02;24.50;56.90
13928;DHT22;7036;50.834;4.718;2023-09-19T13:37:28;24.50;57.00
13928;DHT22;7036;50.834;4.718;2023-09-19T13:39:55;24.50;57.00
13928;DHT22;7036;50.834;4.718;2023-09-19T13:42:23;24.50;57.00
13928;DHT22;7036;50.834;4.718;2023-09-19T13:44:49;24.50;57.10
13928;DHT22;7036;50.834;4.718;2023-09-19T13:47:17;24.50;57.20
13928;DHT22;7036;50.834;4.718;2023-09-19T13:49:44;24.50;57.20
13928;DHT22;7036;50.834;4.718;2023-09-19T13:52:11;24.50;57.30
13928;DHT22;7036;50.834;4.718;2023-09-19T13:54:38;24.50;57.40
13928;DHT22;7036;50.834;4.718;2023-09-19T13:57:04;24.50;57.40
13928;DHT22;7036;50.834;4.718;2023-09-19T13:59:31;24.50;57.50
13928;DHT22;7036;50.834;4.718;2023-09-19T14:01:58;24.50;57.50
13928;DHT22;7036;50.834;4.718;2023-09-19T14:04:25;24.50;57.50
13928;DHT22;7036;50.834;4.718;2023-09-19T14:06:52;24.50;57.50
13928;DHT22;7036;50.834;4.718;2023-09-19T14:09:19;24.50;57.40
13928;DHT22;7036;50.834;4.718;2023-09-19T14:11:46;24.50;57.30
13928;DHT22;7036;50.834;4.718;2023-09-19T14:14:13;24.50;57.40
13928;DHT22;7036;50.834;4.718;2023-09-19T14:16:40;24.50;57.00
13928;DHT22;7036;50.834;4.718;2023-09-19T14:19:07;24.40;57.10
13928;DHT22;7036;50.834;4.718;2023-09-19T14:21:34;24.40;57.10
13928;DHT22;7036;50.834;4.718;2023-09-19T14:24:01;24.40;57.20
13928;DHT22;7036;50.834;4.718;2023-09-19T14:26:28;24.40;57.20
13928;DHT22;7036;50.834;4.718;2023-09-19T14:28:55;24.40;57.20
13928;DHT22;7036;50.834;4.718;2023-09-19T14:31:22;24.40;57.20
13928;DHT22;7036;50.834;4.718;2023-09-19T14:33:55;24.40;57.20
13928;DHT22;7036;50.834;4.718;2023-09-19T14:36:21;24.40;57.10
13928;DHT22;7036;50.834;4.718;2023-09-19T14:38:51;24.40;57.00
13928;DHT22;7036;50.834;4.718;2023-09-19T14:41:15;24.40;57.10
13928;DHT22;7036;50.834;4.718;2023-09-19T14:43:42;24.40;57.10
13928;DHT22;7036;50.834;4.718;2023-09-19T14:46:09;24.40;57.20
13928;DHT22;7036;50.834;4.718;2023-09-19T14:48:36;24.40;57.20
13928;DHT22;7036;50.834;4.718;2023-09-19T14:51:03;24.40;57.20
13928;DHT22;7036;50.834;4.718;2023-09-19T14:53:33;24.40;57.30
13928;DHT22;7036;50.834;4.718;2023-09-19T14:55:59;24.40;57.40
13928;DHT22;7036;50.834;4.718;2023-09-19T14:58:24;24.50;57.40
13928;DHT22;7036;50.834;4.718;2023-09-19T15:00:51;24.50;57.50
13928;DHT22;7036;50.834;4.718;2023-09-19T15:03:18;24.40;57.40
13928;DHT22;7036;50.834;4.718;2023-09-19T15:05:45;24.40;57.40
13928;DHT22;7036;50.834;4.718;2023-09-19T15:08:11;24.40;57.60
13928;DHT22;7036;50.834;4.718;2023-09-19T15:10:38;24.40;57.90
13928;DHT22;7036;50.834;4.718;2023-09-19T15:13:05;24.20;58.40
13928;DHT22;7036;50.834;4.718;2023-09-19T15:15:32;24.20;58.80
13928;DHT22;7036;50.834;4.718;2023-09-19T15:17:59;24.20;59.60
13928;DHT22;7036;50.834;4.718;2023-09-19T15:20:26;24.20;59.70
13928;DHT22;7036;50.834;4.718;2023-09-19T15:22:53;24.20;59.70
13928;DHT22;7036;50.834;4.718;2023-09-19T15:25:20;24.20;59.30
13928;DHT22;7036;50.834;4.718;2023-09-19T15:27:47;24.20;59.10
13928;DHT22;7036;50.834;4.718;2023-09-19T15:30:14;24.20;59.20
13928;DHT22;7036;50.834;4.718;2023-09-19T15:32:41;24.20;59.00
13928;DHT22;7036;50.834;4.718;2023-09-19T15:35:08;24.20;58.90
13928;DHT22;7036;50.834;4.718;2023-09-19T15:37:35;24.30;58.90
13928;DHT22;7036;50.834;4.718;2023-09-19T15:40:02;24.30;58.70
13928;DHT22;7036;50.834;4.718;2023-09-19T15:42:29;24.30;58.50
13928;DHT22;7036;50.834;4.718;2023-09-19T15:44:56;24.30;58.50
13928;DHT22;7036;50.834;4.718;2023-09-19T15:47:22;24.30;58.50
13928;DHT22;7036;50.834;4.718;2023-09-19T15:49:50;24.30;58.50
13928;DHT22;7036;50.834;4.718;2023-09-19T15:52:17;24.30;58.70
13928;DHT22;7036;50.834;4.718;2023-09-19T15:54:43;24.30;58.80
13928;DHT22;7036;50.834;4.718;2023-09-19T15:57:10;24.30;58.60
13928;DHT22;7036;50.834;4.718;2023-09-19T15:59:37;24.30;58.80
13928;DHT22;7036;50.834;4.718;2023-09-19T16:02:04;24.30;58.60
13928;DHT22;7036;50.834;4.718;2023-09-19T16:04:31;24.30;58.60
13928;DHT22;7036;50.834;4.718;2023-09-19T16:06:58;24.30;58.60
13928;DHT22;7036;50.834;4.718;2023-09-19T16:09:25;24.30;58.60
13928;DHT22;7036;50.834;4.718;2023-09-19T16:11:52;24.30;58.60
13928;DHT22;7036;50.834;4.718;2023-09-19T16:14:19;24.30;58.60
13928;DHT22;7036;50.834;4.718;2023-09-19T16:16:46;24.30;58.80
13928;DHT22;7036;50.834;4.718;2023-09-19T16:19:14;24.30;58.70
13928;DHT22;7036;50.834;4.718;2023-09-19T16:21:41;24.30;58.80
13928;DHT22;7036;50.834;4.718;2023-09-19T16:24:08;24.30;58.70
13928;DHT22;7036;50.834;4.718;2023-09-19T16:26:35;24.30;58.70
13928;DHT22;7036;50.834;4.718;2023-09-19T16:29:02;24.30;58.60
13928;DHT22;7036;50.834;4.718;2023-09-19T16:31:29;24.30;58.70
13928;DHT22;7036;50.834;4.718;2023-09-19T16:33:56;24.30;58.60
13928;DHT22;7036;50.834;4.718;2023-09-19T16:36:23;24.30;58.60
13928;DHT22;7036;50.834;4.718;2023-09-19T16:38:50;24.30;58.60
13928;DHT22;7036;50.834;4.718;2023-09-19T16:41:18;24.20;58.80